sensor_id;sensor_type;location;lat;lon;timestamp;pressure;altitude;pressure_sealevel;temperature;humidity
84413;BME280;74611;53.106;8.778;2024-02-21T00:00:13;102100.72;;;7.96;90.71
84413;BME280;74611;53.106;8.778;2024-02-21T00:02:39;102096.22;;;7.97;90.65
84413;BME280;74611;53.106;8.778;2024-02-21T00:05:04;102103.38;;;7.96;91.02
84413;BME280;74611;53.106;8.778;2024-02-21T00:07:30;102100.50;;;8.09;89.73
84413;BME280;74611;53.106;8.778;2024-02-21T00:09:55;102106.50;;;8.01;90.35
84413;BME280;74611;53.106;8.778;2024-02-21T00:12:21;102103.28;;;7.98;91.22
84413;BME280;74611;53.106;8.778;2024-02-21T00:14:46;102096.22;;;7.97;90.95
84413;BME280;74611;53.106;8.778;2024-02-21T00:17:12;102084.56;;;7.98;91.18
84413;BME280;74611;53.106;8.778;2024-02-21T00:19:37;102097.53;;;8.02;91.01
84413;BME280;74611;53.106;8.778;2024-02-21T00:22:03;102082.59;;;8.00;90.32
84413;BME280;74611;53.106;8.778;2024-02-21T00:24:29;102086.41;;;7.97;90.95
84413;BME280;74611;53.106;8.778;2024-02-21T00:26:55;102088.66;;;8.02;90.87
84413;BME280;74611;53.106;8.778;2024-02-21T00:29:20;102073.59;;;8.01;90.77
84413;BME280;74611;53.106;8.778;2024-02-21T00:31:46;102082.47;;;8.01;90.85
84413;BME280;74611;53.106;8.778;2024-02-21T00:34:11;102074.31;;;8.03;90.33
84413;BME280;74611;53.106;8.778;2024-02-21T00:36:38;102075.59;;;8.08;89.89
84413;BME280;74611;53.106;8.778;2024-02-21T00:39:03;102066.28;;;8.03;90.58
84413;BME280;74611;53.106;8.778;2024-02-21T00:41:29;102069.81;;;8.03;90.63
84413;BME280;74611;53.106;8.778;2024-02-21T00:43:55;102070.81;;;8.02;91.34
84413;BME280;74611;53.106;8.778;2024-02-21T00:46:20;102077.13;;;8.01;90.92
84413;BME280;74611;53.106;8.778;2024-02-21T00:48:46;102061.66;;;8.05;90.96
84413;BME280;74611;53.106;8.778;2024-02-21T00:51:11;102064.31;;;8.05;91.21
84413;BME280;74611;53.106;8.778;2024-02-21T00:53:37;102070.53;;;8.05;90.34
84413;BME280;74611;53.106;8.778;2024-02-21T00:56:05;102073.91;;;8.07;90.34
84413;BME280;74611;53.106;8.778;2024-02-21T00:58:30;102066.44;;;8.01;90.42
84413;BME280;74611;53.106;8.778;2024-02-21T01:00:56;102062.50;;;8.05;91.27
84413;BME280;74611;53.106;8.778;2024-02-21T01:03:22;102064.06;;;8.08;90.42
84413;BME280;74611;53.106;8.778;2024-02-21T01:05:47;102058.97;;;8.05;91.09
84413;BME280;74611;53.106;8.778;2024-02-21T01:08:13;102052.66;;;8.06;90.63
84413;BME280;74611;53.106;8.778;2024-02-21T01:10:38;102054.78;;;8.02;91.04
84413;BME280;74611;53.106;8.778;2024-02-21T01:13:04;102046.78;;;8.02;90.85
84413;BME280;74611;53.106;8.778;2024-02-21T01:15:29;102048.88;;;8.08;90.18
84413;BME280;74611;53.106;8.778;2024-02-21T01:17:55;102045.22;;;8.09;90.23
84413;BME280;74611;53.106;8.778;2024-02-21T01:20:21;102042.13;;;8.04;91.36
84413;BME280;74611;53.106;8.778;2024-02-21T01:22:47;102035.09;;;8.03;91.14
84413;BME280;74611;53.106;8.778;2024-02-21T01:25:12;102038.06;;;8.10;90.41
84413;BME280;74611;53.106;8.778;2024-02-21T01:27:38;102022.44;;;8.05;90.72
84413;BME280;74611;53.106;8.778;2024-02-21T01:30:04;102022.03;;;8.10;90.41
84413;BME280;74611;53.106;8.778;2024-02-21T01:32:31;102008.25;;;8.05;91.42
84413;BME280;74611;53.106;8.778;2024-02-21T01:34:56;102007.13;;;8.07;90.94
84413;BME280;74611;53.106;8.778;2024-02-21T01:37:41;101990.38;;;8.05;90.89
84413;BME280;74611;53.106;8.778;2024-02-21T01:40:07;101977.16;;;8.13;89.44
84413;BME280;74611;53.106;8.778;2024-02-21T01:42:33;101976.88;;;8.07;91.77
84413;BME280;74611;53.106;8.778;2024-02-21T01:44:58;101984.22;;;8.14;89.89
84413;BME280;74611;53.106;8.778;2024-02-21T01:47:24;101972.56;;;8.15;90.22
84413;BME280;74611;53.106;8.778;2024-02-21T01:49:49;101969.16;;;8.13;90.13
84413;BME280;74611;53.106;8.778;2024-02-21T01:52:16;101972.81;;;8.12;90.25
84413;BME280;74611;53.106;8.778;2024-02-21T01:54:46;101955.94;;;8.12;90.94
84413;BME280;74611;53.106;8.778;2024-02-21T01:57:13;101941.75;;;8.11;90.76
84413;BME280;74611;53.106;8.778;2024-02-21T01:59:39;101929.38;;;8.10;90.39
84413;BME280;74611;53.106;8.778;2024-02-21T02:02:05;101916.88;;;8.11;90.51
84413;BME280;74611;53.106;8.778;2024-02-21T02:04:30;101914.22;;;8.11;91.44
84413;BME280;74611;53.106;8.778;2024-02-21T02:07:00;101888.91;;;8.15;89.67
84413;BME280;74611;53.106;8.778;2024-02-21T02:09:27;101894.09;;;8.16;90.32
84413;BME280;74611;53.106;8.778;2024-02-21T02:11:53;101897.75;;;8.15;90.61
84413;BME280;74611;53.106;8.778;2024-02-21T02:14:19;101899.84;;;8.12;90.37
84413;BME280;74611;53.106;8.778;2024-02-21T02:16:47;101904.66;;;8.08;91.54
84413;BME280;74611;53.106;8.778;2024-02-21T02:19:13;101894.50;;;8.12;90.47
84413;BME280;74611;53.106;8.778;2024-02-21T02:21:43;101894.81;;;8.09;90.86
84413;BME280;74611;53.106;8.778;2024-02-21T02:24:12;101908.72;;;8.12;90.76
84413;BME280;74611;53.106;8.778;2024-02-21T02:26:39;101905.34;;;8.10;90.22
84413;BME280;74611;53.106;8.778;2024-02-21T02:29:05;101905.63;;;8.07;91.11
84413;BME280;74611;53.106;8.778;2024-02-21T02:31:30;101899.44;;;8.07;90.29
84413;BME280;74611;53.106;8.778;2024-02-21T02:33:56;101905.94;;;8.04;91.46
84413;BME280;74611;53.106;8.778;2024-02-21T02:36:22;101911.81;;;8.08;90.15
84413;BME280;74611;53.106;8.778;2024-02-21T02:38:47;101915.47;;;8.07;91.10
84413;BME280;74611;53.106;8.778;2024-02-21T02:41:13;101910.13;;;8.07;91.39
84413;BME280;74611;53.106;8.778;2024-02-21T02:43:38;101901.13;;;8.08;91.17
84413;BME280;74611;53.106;8.778;2024-02-21T02:46:04;101898.47;;;8.08;90.49
84413;BME280;74611;53.106;8.778;2024-02-21T02:48:29;101895.78;;;8.08;90.32
84413;BME280;74611;53.106;8.778;2024-02-21T02:50:55;101894.94;;;8.07;90.71
84413;BME280;74611;53.106;8.778;2024-02-21T02:53:21;101897.59;;;8.07;90.62
84413;BME280;74611;53.106;8.778;2024-02-21T02:55:46;101893.97;;;8.08;90.21
84413;BME280;74611;53.106;8.778;2024-02-21T02:58:12;101911.66;;;8.09;89.98
84413;BME280;74611;53.106;8.778;2024-02-21T03:00:37;101901.81;;;8.10;90.88
84413;BME280;74611;53.106;8.778;2024-02-21T03:03:04;101902.09;;;8.07;90.82
84413;BME280;74611;53.106;8.778;2024-02-21T03:05:30;101910.84;;;8.09;90.58
84413;BME280;74611;53.106;8.778;2024-02-21T03:07:55;101910.69;;;8.10;91.14
84413;BME280;74611;53.106;8.778;2024-02-21T03:10:21;101900.72;;;8.12;90.25
84413;BME280;74611;53.106;8.778;2024-02-21T03:12:47;101905.19;;;8.12;90.84
84413;BME280;74611;53.106;8.778;2024-02-21T03:15:13;101897.19;;;8.12;90.43
84413;BME280;74611;53.106;8.778;2024-02-21T03:17:39;101897.50;;;8.09;90.40
84413;BME280;74611;53.106;8.778;2024-02-21T03:20:06;101885.81;;;8.10;91.21
84413;BME280;74611;53.106;8.778;2024-02-21T03:22:35;101898.31;;;8.09;91.18
84413;BME280;74611;53.106;8.778;2024-02-21T03:25:01;101896.34;;;8.11;90.99
84413;BME280;74611;53.106;8.778;2024-02-21T03:27:27;101901.56;;;8.13;90.86
84413;BME280;74611;53.106;8.778;2024-02-21T03:29:53;101898.03;;;8.12;90.66
84413;BME280;74611;53.106;8.778;2024-02-21T03:32:19;101893.25;;;8.16;90.06
84413;BME280;74611;53.106;8.778;2024-02-21T03:34:44;101893.38;;;8.14;90.12
84413;BME280;74611;53.106;8.778;2024-02-21T03:37:10;101888.06;;;8.14;90.84
84413;BME280;74611;53.106;8.778;2024-02-21T03:39:35;101894.38;;;8.13;90.66
84413;BME280;74611;53.106;8.778;2024-02-21T03:42:02;101879.34;;;8.12;91.48
84413;BME280;74611;53.106;8.778;2024-02-21T03:44:33;101882.16;;;8.11;91.14
84413;BME280;74611;53.106;8.778;2024-02-21T03:46:59;101882.28;;;8.09;92.05
84413;BME280;74611;53.106;8.778;2024-02-21T03:49:25;101880.63;;;8.08;92.56
84413;BME280;74611;53.106;8.778;2024-02-21T03:51:51;101877.09;;;8.08;91.83
84413;BME280;74611;53.106;8.778;2024-02-21T03:54:16;101880.63;;;8.08;91.50
84413;BME280;74611;53.106;8.778;2024-02-21T03:56:42;101876.41;;;8.06;92.30
84413;BME280;74611;53.106;8.778;2024-02-21T03:59:08;101893.13;;;8.08;92.79
84413;BME280;74611;53.106;8.778;2024-02-21T04:01:34;101877.38;;;8.05;92.11
84413;BME280;74611;53.106;8.778;2024-02-21T04:04:07;101884.56;;;8.04;91.76
84413;BME280;74611;53.106;8.778;2024-02-21T04:06:32;101882.00;;;8.03;92.27
84413;BME280;74611;53.106;8.778;2024-02-21T04:08:58;101889.06;;;8.04;91.95
84413;BME280;74611;53.106;8.778;2024-02-21T04:11:24;101883.88;;;8.02;92.50
84413;BME280;74611;53.106;8.778;2024-02-21T04:13:49;101883.97;;;8.01;92.34
84413;BME280;74611;53.106;8.778;2024-02-21T04:16:17;101874.31;;;8.00;93.63
84413;BME280;74611;53.106;8.778;2024-02-21T04:18:42;101874.31;;;8.00;93.00
84413;BME280;74611;53.106;8.778;2024-02-21T04:21:09;101889.47;;;7.99;92.39
84413;BME280;74611;53.106;8.778;2024-02-21T04:23:35;101874.72;;;7.95;93.95
84413;BME280;74611;53.106;8.778;2024-02-21T04:26:00;101873.88;;;7.95;93.14
84413;BME280;74611;53.106;8.778;2024-02-21T04:28:26;101868.53;;;7.95;93.25
84413;BME280;74611;53.106;8.778;2024-02-21T04:30:51;101867.84;;;7.93;92.61
84413;BME280;74611;53.106;8.778;2024-02-21T04:33:18;101873.72;;;7.96;92.81
84413;BME280;74611;53.106;8.778;2024-02-21T04:35:43;101871.22;;;7.95;93.31
84413;BME280;74611;53.106;8.778;2024-02-21T04:38:09;101867.69;;;7.94;93.40
84413;BME280;74611;53.106;8.778;2024-02-21T04:40:34;101865.16;;;7.93;93.29
84413;BME280;74611;53.106;8.778;2024-02-21T04:43:00;101855.47;;;7.92;93.75
84413;BME280;74611;53.106;8.778;2024-02-21T04:45:26;101853.63;;;7.92;93.24
84413;BME280;74611;53.106;8.778;2024-02-21T04:47:51;101852.09;;;7.90;93.38
84413;BME280;74611;53.106;8.778;2024-02-21T04:50:17;101847.91;;;7.87;94.68
84413;BME280;74611;53.106;8.778;2024-02-21T04:52:43;101854.75;;;7.90;93.32
84413;BME280;74611;53.106;8.778;2024-02-21T04:55:08;101858.28;;;7.90;93.18
84413;BME280;74611;53.106;8.778;2024-02-21T04:57:34;101858.44;;;7.89;93.37
84413;BME280;74611;53.106;8.778;2024-02-21T05:00:00;101856.63;;;7.89;93.08
84413;BME280;74611;53.106;8.778;2024-02-21T05:02:25;101862.06;;;7.88;93.76
84413;BME280;74611;53.106;8.778;2024-02-21T05:04:52;101862.06;;;7.88;93.69
84413;BME280;74611;53.106;8.778;2024-02-21T05:07:18;101861.25;;;7.87;93.75
84413;BME280;74611;53.106;8.778;2024-02-21T05:09:45;101855.06;;;7.87;93.25
84413;BME280;74611;53.106;8.778;2024-02-21T05:12:11;101852.41;;;7.87;94.41
84413;BME280;74611;53.106;8.778;2024-02-21T05:14:36;101846.91;;;7.88;93.79
84413;BME280;74611;53.106;8.778;2024-02-21T05:17:03;101838.19;;;7.86;93.38
84413;BME280;74611;53.106;8.778;2024-02-21T05:19:29;101842.69;;;7.86;94.41
84413;BME280;74611;53.106;8.778;2024-02-21T05:21:55;101845.66;;;7.83;94.76
84413;BME280;74611;53.106;8.778;2024-02-21T05:24:21;101840.88;;;7.86;93.83
84413;BME280;74611;53.106;8.778;2024-02-21T05:26:46;101822.31;;;7.85;93.86
84413;BME280;74611;53.106;8.778;2024-02-21T05:29:12;101833.13;;;7.83;94.07
84413;BME280;74611;53.106;8.778;2024-02-21T05:34:19;101818.97;;;7.83;94.11
84413;BME280;74611;53.106;8.778;2024-02-21T05:36:45;101820.78;;;7.82;93.72
84413;BME280;74611;53.106;8.778;2024-02-21T05:39:11;101810.94;;;7.83;93.39
84413;BME280;74611;53.106;8.778;2024-02-21T05:41:37;101809.09;;;7.83;95.32
84413;BME280;74611;53.106;8.778;2024-02-21T05:44:02;101817.41;;;7.80;94.59
84413;BME280;74611;53.106;8.778;2024-02-21T05:46:28;101815.72;;;7.79;94.72
84413;BME280;74611;53.106;8.778;2024-02-21T05:48:54;101810.81;;;7.84;93.63
84413;BME280;74611;53.106;8.778;2024-02-21T05:51:19;101813.63;;;7.83;93.33
84413;BME280;74611;53.106;8.778;2024-02-21T05:53:45;101802.94;;;7.83;94.88
84413;BME280;74611;53.106;8.778;2024-02-21T05:56:12;101802.78;;;7.84;94.08
84413;BME280;74611;53.106;8.778;2024-02-21T05:58:38;101805.63;;;7.83;93.39
84413;BME280;74611;53.106;8.778;2024-02-21T06:01:07;101798.72;;;7.80;94.59
84413;BME280;74611;53.106;8.778;2024-02-21T06:03:33;101805.88;;;7.80;94.46
84413;BME280;74611;53.106;8.778;2024-02-21T06:06:00;101807.59;;;7.81;94.05
84413;BME280;74611;53.106;8.778;2024-02-21T06:08:26;101802.25;;;7.81;94.01
84413;BME280;74611;53.106;8.778;2024-02-21T06:10:52;101804.59;;;7.84;93.28
84413;BME280;74611;53.106;8.778;2024-02-21T06:13:23;101802.94;;;7.83;93.60
84413;BME280;74611;53.106;8.778;2024-02-21T06:15:49;101807.59;;;7.81;93.82
84413;BME280;74611;53.106;8.778;2024-02-21T06:18:19;101810.25;;;7.81;94.64
84413;BME280;74611;53.106;8.778;2024-02-21T06:20:45;101805.63;;;7.83;94.42
84413;BME280;74611;53.106;8.778;2024-02-21T06:23:15;101806.59;;;7.82;92.71
84413;BME280;74611;53.106;8.778;2024-02-21T06:25:41;101805.72;;;7.81;93.70
84413;BME280;74611;53.106;8.778;2024-02-21T06:28:07;101802.25;;;7.81;93.25
84413;BME280;74611;53.106;8.778;2024-02-21T06:30:35;101795.91;;;7.82;94.46
84413;BME280;74611;53.106;8.778;2024-02-21T06:33:01;101795.22;;;7.80;94.34
84413;BME280;74611;53.106;8.778;2024-02-21T06:35:28;101796.91;;;7.81;94.12
84413;BME280;74611;53.106;8.778;2024-02-21T06:37:53;101803.75;;;7.83;94.34
84413;BME280;74611;53.106;8.778;2024-02-21T06:40:21;101807.44;;;7.82;93.53
84413;BME280;74611;53.106;8.778;2024-02-21T06:42:47;101806.59;;;7.82;93.62
84413;BME280;74611;53.106;8.778;2024-02-21T06:45:13;101809.78;;;7.85;94.02
84413;BME280;74611;53.106;8.778;2024-02-21T06:47:38;101810.25;;;7.81;93.94
84413;BME280;74611;53.106;8.778;2024-02-21T06:50:04;101813.75;;;7.81;94.00
84413;BME280;74611;53.106;8.778;2024-02-21T06:52:30;101815.44;;;7.82;94.38
84413;BME280;74611;53.106;8.778;2024-02-21T06:54:56;101826.13;;;7.82;94.22
84413;BME280;74611;53.106;8.778;2024-02-21T06:57:31;101829.06;;;7.79;94.61
84413;BME280;74611;53.106;8.778;2024-02-21T06:59:56;101813.03;;;7.79;93.63
84413;BME280;74611;53.106;8.778;2024-02-21T07:02:22;101822.44;;;7.83;94.00
84413;BME280;74611;53.106;8.778;2024-02-21T07:04:48;101809.41;;;7.80;94.59
84413;BME280;74611;53.106;8.778;2024-02-21T07:07:15;101820.94;;;7.81;94.46
84413;BME280;74611;53.106;8.778;2024-02-21T07:09:40;101809.25;;;7.82;94.63
84413;BME280;74611;53.106;8.778;2024-02-21T07:12:07;101809.25;;;7.82;94.40
84413;BME280;74611;53.106;8.778;2024-02-21T07:14:33;101807.72;;;7.79;94.22
84413;BME280;74611;53.106;8.778;2024-02-21T07:16:58;101818.81;;;7.84;94.62
84413;BME280;74611;53.106;8.778;2024-02-21T07:19:24;101828.94;;;7.81;94.46
84413;BME280;74611;53.106;8.778;2024-02-21T07:21:49;101836.81;;;7.82;94.21
84413;BME280;74611;53.106;8.778;2024-02-21T07:24:15;101829.63;;;7.83;94.75
84413;BME280;74611;53.106;8.778;2024-02-21T07:26:42;101830.47;;;7.83;94.03
84413;BME280;74611;53.106;8.778;2024-02-21T07:29:10;101830.47;;;7.83;93.44
84413;BME280;74611;53.106;8.778;2024-02-21T07:31:42;101820.47;;;7.85;94.78
84413;BME280;74611;53.106;8.778;2024-02-21T07:34:08;101821.31;;;7.86;94.56
84413;BME280;74611;53.106;8.778;2024-02-21T07:36:33;101820.34;;;7.87;93.38
84413;BME280;74611;53.106;8.778;2024-02-21T07:38:59;101822.03;;;7.88;94.68
84413;BME280;74611;53.106;8.778;2024-02-21T07:41:25;101820.34;;;7.87;92.80
84413;BME280;74611;53.106;8.778;2024-02-21T07:43:51;101815.72;;;7.89;93.75
84413;BME280;74611;53.106;8.778;2024-02-21T07:46:18;101834.94;;;7.92;94.76
84413;BME280;74611;53.106;8.778;2024-02-21T07:48:45;101824.16;;;7.94;94.14
84413;BME280;74611;53.106;8.778;2024-02-21T07:51:10;101822.59;;;7.91;93.17
84413;BME280;74611;53.106;8.778;2024-02-21T07:53:36;101820.47;;;7.95;94.16
84413;BME280;74611;53.106;8.778;2024-02-21T07:56:02;101820.19;;;7.98;94.05
84413;BME280;74611;53.106;8.778;2024-02-21T07:58:27;101817.53;;;7.98;94.23
84413;BME280;74611;53.106;8.778;2024-02-21T08:00:53;101826.34;;;7.98;94.49
84413;BME280;74611;53.106;8.778;2024-02-21T08:03:18;101807.38;;;8.01;94.67
84413;BME280;74611;53.106;8.778;2024-02-21T08:05:44;101810.22;;;8.00;93.55
84413;BME280;74611;53.106;8.778;2024-02-21T08:08:09;101792.22;;;8.02;93.74
84413;BME280;74611;53.106;8.778;2024-02-21T08:10:35;101799.09;;;8.04;94.45
84413;BME280;74611;53.106;8.778;2024-02-21T08:13:01;101806.81;;;8.07;93.85
84413;BME280;74611;53.106;8.778;2024-02-21T08:15:26;101800.50;;;8.08;93.70
84413;BME280;74611;53.106;8.778;2024-02-21T08:17:55;101800.50;;;8.08;92.93
84413;BME280;74611;53.106;8.778;2024-02-21T08:20:25;101790.34;;;8.12;94.61
84413;BME280;74611;53.106;8.778;2024-02-21T08:22:50;101783.03;;;8.14;93.87
84413;BME280;74611;53.106;8.778;2024-02-21T08:25:16;101788.09;;;8.17;93.27
84413;BME280;74611;53.106;8.778;2024-02-21T08:27:41;101787.25;;;8.16;93.49
84413;BME280;74611;53.106;8.778;2024-02-21T08:30:07;101777.94;;;8.20;93.43
84413;BME280;74611;53.106;8.778;2024-02-21T08:32:33;101783.28;;;8.20;92.84
84413;BME280;74611;53.106;8.778;2024-02-21T08:35:01;101781.91;;;8.26;93.84
84413;BME280;74611;53.106;8.778;2024-02-21T08:37:29;101780.91;;;8.27;92.71
84413;BME280;74611;53.106;8.778;2024-02-21T08:39:55;101776.41;;;8.27;93.54
84413;BME280;74611;53.106;8.778;2024-02-21T08:42:21;101775.28;;;8.30;93.35
84413;BME280;74611;53.106;8.778;2024-02-21T08:44:46;101772.84;;;8.37;93.59
84413;BME280;74611;53.106;8.778;2024-02-21T08:47:12;101772.28;;;8.33;92.55
84413;BME280;74611;53.106;8.778;2024-02-21T08:49:38;101765.38;;;8.40;93.64
84413;BME280;74611;53.106;8.778;2024-02-21T08:52:04;101765.09;;;8.43;93.03
84413;BME280;74611;53.106;8.778;2024-02-21T08:54:30;101761.97;;;8.48;93.58
84413;BME280;74611;53.106;8.778;2024-02-21T08:56:56;101769.31;;;8.46;93.70
84413;BME280;74611;53.106;8.778;2024-02-21T08:59:22;101775.19;;;8.49;92.65
84413;BME280;74611;53.106;8.778;2024-02-21T09:01:47;101760.00;;;8.50;93.31
84413;BME280;74611;53.106;8.778;2024-02-21T09:04:12;101761.13;;;8.47;92.35
84413;BME280;74611;53.106;8.778;2024-02-21T09:06:38;101755.09;;;8.45;92.72
84413;BME280;74611;53.106;8.778;2024-02-21T09:09:08;101751.41;;;8.46;93.72
84413;BME280;74611;53.106;8.778;2024-02-21T09:11:34;101757.16;;;8.51;93.39
84413;BME280;74611;53.106;8.778;2024-02-21T09:13:59;101759.44;;;8.46;93.36
84413;BME280;74611;53.106;8.778;2024-02-21T09:16:25;101767.31;;;8.48;92.69
84413;BME280;74611;53.106;8.778;2024-02-21T09:18:51;101753.97;;;8.48;93.22
84413;BME280;74611;53.106;8.778;2024-02-21T09:21:18;101755.25;;;8.44;92.79
84413;BME280;74611;53.106;8.778;2024-02-21T09:23:44;101755.38;;;8.42;93.13
84413;BME280;74611;53.106;8.778;2024-02-21T09:26:10;101756.22;;;8.43;92.15
84413;BME280;74611;53.106;8.778;2024-02-21T09:28:39;101754.25;;;8.45;93.23
84413;BME280;74611;53.106;8.778;2024-02-21T09:31:05;101747.53;;;8.41;92.69
84413;BME280;74611;53.106;8.778;2024-02-21T09:33:30;101745.38;;;8.44;92.94
84413;BME280;74611;53.106;8.778;2024-02-21T09:35:56;101748.50;;;8.40;92.41
84413;BME280;74611;53.106;8.778;2024-02-21T09:38:21;101744.16;;;8.39;92.97
84413;BME280;74611;53.106;8.778;2024-02-21T09:40:47;101738.53;;;8.42;92.16
84413;BME280;74611;53.106;8.778;2024-02-21T09:43:17;101735.28;;;8.38;91.28
84413;BME280;74611;53.106;8.778;2024-02-21T09:45:46;101734.00;;;8.42;91.61
84413;BME280;74611;53.106;8.778;2024-02-21T09:51:01;101737.81;;;8.40;92.00
84413;BME280;74611;53.106;8.778;2024-02-21T09:53:28;101736.13;;;8.39;91.79
84413;BME280;74611;53.106;8.778;2024-02-21T09:55:56;101729.50;;;8.43;91.55
84413;BME280;74611;53.106;8.778;2024-02-21T09:58:23;101729.50;;;8.43;91.71
84413;BME280;74611;53.106;8.778;2024-02-21T10:00:49;101718.66;;;8.44;91.30
84413;BME280;74611;53.106;8.778;2024-02-21T10:03:15;101719.34;;;8.46;91.33
84413;BME280;74611;53.106;8.778;2024-02-21T10:05:47;101712.34;;;8.45;91.56
84413;BME280;74611;53.106;8.778;2024-02-21T10:08:14;101708.53;;;8.48;91.85
84413;BME280;74611;53.106;8.778;2024-02-21T10:10:43;101702.78;;;8.43;91.21
84413;BME280;74611;53.106;8.778;2024-02-21T10:13:10;101705.16;;;8.46;90.99
84413;BME280;74611;53.106;8.778;2024-02-21T10:15:36;101698.13;;;8.45;91.12
84413;BME280;74611;53.106;8.778;2024-02-21T10:18:02;101691.81;;;8.46;90.31
84413;BME280;74611;53.106;8.778;2024-02-21T10:20:32;101691.81;;;8.46;89.84
84413;BME280;74611;53.106;8.778;2024-02-21T10:23:02;101692.19;;;8.51;91.33
84413;BME280;74611;53.106;8.778;2024-02-21T10:25:29;101683.03;;;8.53;90.23
84413;BME280;74611;53.106;8.778;2024-02-21T10:27:56;101686.53;;;8.54;90.96
84413;BME280;74611;53.106;8.778;2024-02-21T10:30:21;101676.38;;;8.57;91.09
84413;BME280;74611;53.106;8.778;2024-02-21T10:32:53;101689.44;;;8.60;90.78
84413;BME280;74611;53.106;8.778;2024-02-21T10:35:45;101675.06;;;8.61;90.02
84413;BME280;74611;53.106;8.778;2024-02-21T10:38:11;101678.16;;;8.66;89.93
84413;BME280;74611;53.106;8.778;2024-02-21T10:40:36;101677.16;;;8.67;89.87
84413;BME280;74611;53.106;8.778;2024-02-21T10:43:02;101666.16;;;8.70;90.40
84413;BME280;74611;53.106;8.778;2024-02-21T10:45:32;101673.03;;;8.73;90.05
84413;BME280;74611;53.106;8.778;2024-02-21T10:48:12;101661.03;;;8.77;90.63
84413;BME280;74611;53.106;8.778;2024-02-21T10:50:56;101661.88;;;8.77;89.09
84413;BME280;74611;53.106;8.778;2024-02-21T10:54:12;101662.13;;;8.84;90.08
84413;BME280;74611;53.106;8.778;2024-02-21T10:56:39;101665.31;;;8.87;89.13
84413;BME280;74611;53.106;8.778;2024-02-21T10:59:07;101660.50;;;8.91;88.28
84413;BME280;74611;53.106;8.778;2024-02-21T11:01:33;101648.34;;;8.96;88.74
84413;BME280;74611;53.106;8.778;2024-02-21T11:04:08;101648.72;;;9.01;88.55
84413;BME280;74611;53.106;8.778;2024-02-21T11:06:38;101648.66;;;9.11;90.34
84413;BME280;74611;53.106;8.778;2024-02-21T11:09:06;101644.97;;;9.12;88.88
84413;BME280;74611;53.106;8.778;2024-02-21T11:11:39;101645.34;;;9.17;88.78
84413;BME280;74611;53.106;8.778;2024-02-21T11:14:05;101634.19;;;9.22;89.80
84413;BME280;74611;53.106;8.778;2024-02-21T11:16:38;101638.06;;;9.27;89.45
84413;BME280;74611;53.106;8.778;2024-02-21T11:19:09;101622.88;;;9.36;89.72
84413;BME280;74611;53.106;8.778;2024-02-21T11:21:37;101622.25;;;9.42;88.21
84413;BME280;74611;53.106;8.778;2024-02-21T11:24:06;101604.44;;;9.50;89.20
84413;BME280;74611;53.106;8.778;2024-02-21T11:26:32;101597.28;;;9.59;85.51
84413;BME280;74611;53.106;8.778;2024-02-21T11:29:01;101593.13;;;9.64;87.02
84413;BME280;74611;53.106;8.778;2024-02-21T11:31:39;101591.16;;;9.74;86.99
84413;BME280;74611;53.106;8.778;2024-02-21T11:34:09;101580.97;;;9.78;87.55
84413;BME280;74611;53.106;8.778;2024-02-21T11:36:34;101571.97;;;9.87;87.00
84413;BME280;74611;53.106;8.778;2024-02-21T11:39:04;101566.13;;;9.92;86.71
84413;BME280;74611;53.106;8.778;2024-02-21T11:41:30;101566.94;;;9.92;84.38
84413;BME280;74611;53.106;8.778;2024-02-21T11:43:56;101562.13;;;9.96;82.85
84413;BME280;74611;53.106;8.778;2024-02-21T11:46:22;101549.59;;;10.04;83.97
84413;BME280;74611;53.106;8.778;2024-02-21T11:48:49;101550.28;;;10.14;87.47
84413;BME280;74611;53.106;8.778;2024-02-21T11:51:21;101550.81;;;10.18;88.10
84413;BME280;74611;53.106;8.778;2024-02-21T11:53:52;101548.81;;;10.20;87.68
84413;BME280;74611;53.106;8.778;2024-02-21T11:56:18;101549.13;;;10.25;85.22
84413;BME280;74611;53.106;8.778;2024-02-21T11:58:46;101550.31;;;10.22;82.55
84413;BME280;74611;53.106;8.778;2024-02-21T12:01:13;101546.81;;;10.22;82.49
84413;BME280;74611;53.106;8.778;2024-02-21T12:03:39;101545.13;;;10.21;82.04
84413;BME280;74611;53.106;8.778;2024-02-21T12:06:07;101548.31;;;10.32;84.47
84413;BME280;74611;53.106;8.778;2024-02-21T12:08:44;101538.63;;;10.39;87.43
84413;BME280;74611;53.106;8.778;2024-02-21T12:11:23;101527.91;;;10.39;85.77
84413;BME280;74611;53.106;8.778;2024-02-21T12:14:04;101528.88;;;10.38;80.07
84413;BME280;74611;53.106;8.778;2024-02-21T12:16:33;101526.88;;;10.48;84.24
84413;BME280;74611;53.106;8.778;2024-02-21T12:19:00;101520.03;;;10.46;83.65
84413;BME280;74611;53.106;8.778;2024-02-21T12:21:26;101523.88;;;10.43;82.42
84413;BME280;74611;53.106;8.778;2024-02-21T12:23:56;101518.34;;;10.53;83.81
84413;BME280;74611;53.106;8.778;2024-02-21T12:26:22;101512.81;;;10.46;80.64
84413;BME280;74611;53.106;8.778;2024-02-21T12:28:48;101517.34;;;10.46;80.61
84413;BME280;74611;53.106;8.778;2024-02-21T12:31:14;101501.91;;;10.56;81.94
84413;BME280;74611;53.106;8.778;2024-02-21T12:33:42;101503.41;;;10.50;81.31
84413;BME280;74611;53.106;8.778;2024-02-21T12:36:08;101494.38;;;10.51;80.32
84413;BME280;74611;53.106;8.778;2024-02-21T12:38:35;101489.53;;;10.63;85.61
84413;BME280;74611;53.106;8.778;2024-02-21T12:41:01;101496.56;;;10.56;83.00
84413;BME280;74611;53.106;8.778;2024-02-21T12:43:26;101489.00;;;10.51;79.13
84413;BME280;74611;53.106;8.778;2024-02-21T12:45:52;101485.50;;;10.51;80.19
84413;BME280;74611;53.106;8.778;2024-02-21T12:48:18;101466.06;;;10.65;84.88
84413;BME280;74611;53.106;8.778;2024-02-21T12:50:50;101469.03;;;10.70;81.63
84413;BME280;74611;53.106;8.778;2024-02-21T12:53:20;101461.88;;;10.63;78.00
84413;BME280;74611;53.106;8.778;2024-02-21T12:55:48;101442.06;;;10.72;81.28
84413;BME280;74611;53.106;8.778;2024-02-21T12:58:14;101433.88;;;10.65;78.11
84413;BME280;74611;53.106;8.778;2024-02-21T13:00:40;101430.81;;;10.68;84.18
84413;BME280;74611;53.106;8.778;2024-02-21T13:03:06;101434.53;;;10.67;85.04